sensor_id;sensor_type;location;lat;lon;timestamp;P1;durP1;ratioP1;P2;durP2;ratioP2
65315;SDS011;51920;53.952;10.292;2023-03-01T00:01:20;14.03;;;7.50;;
65315;SDS011;51920;53.952;10.292;2023-03-01T00:03:47;13.13;;;7.40;;
65315;SDS011;51920;53.952;10.292;2023-03-01T00:06:12;13.83;;;7.90;;
65315;SDS011;51920;53.952;10.292;2023-03-01T00:08:38;13.35;;;7.15;;
65315;SDS011;51920;53.952;10.292;2023-03-01T00:11:05;14.13;;;7.60;;
65315;SDS011;51920;53.952;10.292;2023-03-01T00:16:33;15.38;;;7.88;;
65315;SDS011;51920;53.952;10.292;2023-03-01T00:19:01;14.60;;;8.00;;
65315;SDS011;51920;53.952;10.292;2023-03-01T00:21:27;14.43;;;7.93;;
65315;SDS011;51920;53.952;10.292;2023-03-01T00:23:53;16.98;;;7.80;;
65315;SDS011;51920;53.952;10.292;2023-03-01T00:26:20;13.80;;;7.70;;
65315;SDS011;51920;53.952;10.292;2023-03-01T00:28:46;17.23;;;8.23;;
65315;SDS011;51920;53.952;10.292;2023-03-01T00:31:16;14.40;;;7.63;;
65315;SDS011;51920;53.952;10.292;2023-03-01T00:33:44;14.90;;;8.02;;
65315;SDS011;51920;53.952;10.292;2023-03-01T00:36:10;13.93;;;7.40;;
65315;SDS011;51920;53.952;10.292;2023-03-01T00:38:38;15.23;;;7.60;;
65315;SDS011;51920;53.952;10.292;2023-03-01T00:41:05;14.27;;;7.70;;
65315;SDS011;51920;53.952;10.292;2023-03-01T00:43:32;14.82;;;7.97;;
65315;SDS011;51920;53.952;10.292;2023-03-01T00:46:08;13.63;;;7.30;;
65315;SDS011;51920;53.952;10.292;2023-03-01T00:48:35;14.70;;;7.80;;
65315;SDS011;51920;53.952;10.292;2023-03-01T00:51:20;14.97;;;8.13;;
65315;SDS011;51920;53.952;10.292;2023-03-01T00:53:51;14.05;;;7.45;;
65315;SDS011;51920;53.952;10.292;2023-03-01T00:56:18;13.50;;;7.55;;
65315;SDS011;51920;53.952;10.292;2023-03-01T00:58:43;12.65;;;7.70;;
65315;SDS011;51920;53.952;10.292;2023-03-01T01:06:48;13.23;;;7.57;;
65315;SDS011;51920;53.952;10.292;2023-03-01T01:09:15;13.98;;;7.80;;
65315;SDS011;51920;53.952;10.292;2023-03-01T01:11:43;17.10;;;8.02;;
65315;SDS011;51920;53.952;10.292;2023-03-01T01:14:09;16.50;;;7.77;;
65315;SDS011;51920;53.952;10.292;2023-03-01T01:16:35;14.05;;;7.72;;
65315;SDS011;51920;53.952;10.292;2023-03-01T01:19:00;15.07;;;8.37;;
65315;SDS011;51920;53.952;10.292;2023-03-01T01:21:26;12.00;;;7.38;;
65315;SDS011;51920;53.952;10.292;2023-03-01T01:23:52;14.57;;;8.02;;
65315;SDS011;51920;53.952;10.292;2023-03-01T01:26:22;12.57;;;7.40;;
65315;SDS011;51920;53.952;10.292;2023-03-01T01:28:50;13.80;;;8.30;;
65315;SDS011;51920;53.952;10.292;2023-03-01T01:31:16;13.13;;;7.97;;
65315;SDS011;51920;53.952;10.292;2023-03-01T01:33:42;13.57;;;7.40;;
65315;SDS011;51920;53.952;10.292;2023-03-01T01:36:09;16.60;;;8.17;;
65315;SDS011;51920;53.952;10.292;2023-03-01T01:38:35;15.55;;;8.20;;
65315;SDS011;51920;53.952;10.292;2023-03-01T01:41:02;16.15;;;8.63;;
65315;SDS011;51920;53.952;10.292;2023-03-01T01:43:32;17.05;;;9.65;;
65315;SDS011;51920;53.952;10.292;2023-03-01T01:46:01;20.13;;;10.27;;
65315;SDS011;51920;53.952;10.292;2023-03-01T01:48:32;23.92;;;10.20;;
65315;SDS011;51920;53.952;10.292;2023-03-01T01:51:13;25.08;;;10.80;;
65315;SDS011;51920;53.952;10.292;2023-03-01T01:53:40;26.13;;;11.25;;
65315;SDS011;51920;53.952;10.292;2023-03-01T01:56:10;35.38;;;12.63;;
65315;SDS011;51920;53.952;10.292;2023-03-01T01:58:36;31.67;;;12.33;;
65315;SDS011;51920;53.952;10.292;2023-03-01T02:01:03;29.85;;;12.07;;
65315;SDS011;51920;53.952;10.292;2023-03-01T02:03:31;26.75;;;11.35;;
65315;SDS011;51920;53.952;10.292;2023-03-01T02:08:44;33.88;;;11.70;;
65315;SDS011;51920;53.952;10.292;2023-03-01T02:11:12;34.93;;;11.40;;
65315;SDS011;51920;53.952;10.292;2023-03-01T02:13:39;33.05;;;10.93;;
65315;SDS011;51920;53.952;10.292;2023-03-01T02:16:10;29.25;;;11.30;;
65315;SDS011;51920;53.952;10.292;2023-03-01T02:18:38;26.35;;;11.10;;
65315;SDS011;51920;53.952;10.292;2023-03-01T02:23:37;39.63;;;11.23;;
65315;SDS011;51920;53.952;10.292;2023-03-01T02:28:42;37.00;;;11.73;;
65315;SDS011;51920;53.952;10.292;2023-03-01T02:31:10;30.30;;;11.60;;
65315;SDS011;51920;53.952;10.292;2023-03-01T02:33:56;27.92;;;11.40;;
65315;SDS011;51920;53.952;10.292;2023-03-01T02:36:24;34.67;;;11.50;;
65315;SDS011;51920;53.952;10.292;2023-03-01T02:38:54;29.40;;;11.63;;
65315;SDS011;51920;53.952;10.292;2023-03-01T02:41:22;30.25;;;12.25;;
65315;SDS011;51920;53.952;10.292;2023-03-01T02:43:49;26.05;;;11.27;;
65315;SDS011;51920;53.952;10.292;2023-03-01T02:46:16;32.53;;;12.07;;
65315;SDS011;51920;53.952;10.292;2023-03-01T02:48:48;28.15;;;10.48;;
65315;SDS011;51920;53.952;10.292;2023-03-01T02:54:13;27.63;;;10.57;;
65315;SDS011;51920;53.952;10.292;2023-03-01T02:56:42;22.45;;;9.98;;
65315;SDS011;51920;53.952;10.292;2023-03-01T02:59:08;24.90;;;10.37;;
65315;SDS011;51920;53.952;10.292;2023-03-01T03:01:35;23.73;;;10.27;;
65315;SDS011;51920;53.952;10.292;2023-03-01T03:04:06;24.58;;;10.25;;
65315;SDS011;51920;53.952;10.292;2023-03-01T03:06:35;25.77;;;10.75;;
65315;SDS011;51920;53.952;10.292;2023-03-01T03:09:01;24.97;;;11.00;;
65315;SDS011;51920;53.952;10.292;2023-03-01T03:11:28;23.52;;;9.93;;
65315;SDS011;51920;53.952;10.292;2023-03-01T03:13:54;21.02;;;10.77;;
65315;SDS011;51920;53.952;10.292;2023-03-01T03:16:21;24.52;;;10.55;;
65315;SDS011;51920;53.952;10.292;2023-03-01T03:18:47;25.87;;;10.77;;
65315;SDS011;51920;53.952;10.292;2023-03-01T03:21:13;23.13;;;10.40;;
65315;SDS011;51920;53.952;10.292;2023-03-01T03:23:38;26.55;;;10.35;;
65315;SDS011;51920;53.952;10.292;2023-03-01T03:26:04;27.00;;;10.60;;
65315;SDS011;51920;53.952;10.292;2023-03-01T03:28:34;23.13;;;10.27;;
65315;SDS011;51920;53.952;10.292;2023-03-01T03:31:00;23.98;;;9.93;;
65315;SDS011;51920;53.952;10.292;2023-03-01T03:33:32;25.73;;;10.57;;
65315;SDS011;51920;53.952;10.292;2023-03-01T03:35:58;27.83;;;10.77;;
65315;SDS011;51920;53.952;10.292;2023-03-01T03:38:23;25.60;;;11.50;;
65315;SDS011;51920;53.952;10.292;2023-03-01T03:40:50;26.90;;;10.30;;
65315;SDS011;51920;53.952;10.292;2023-03-01T03:43:21;27.27;;;10.20;;
65315;SDS011;51920;53.952;10.292;2023-03-01T03:45:48;28.77;;;10.82;;
65315;SDS011;51920;53.952;10.292;2023-03-01T03:48:15;24.08;;;10.30;;
65315;SDS011;51920;53.952;10.292;2023-03-01T03:50:41;28.75;;;10.55;;
65315;SDS011;51920;53.952;10.292;2023-03-01T03:53:13;26.70;;;9.70;;
65315;SDS011;51920;53.952;10.292;2023-03-01T03:55:38;27.50;;;10.18;;
65315;SDS011;51920;53.952;10.292;2023-03-01T03:58:05;21.80;;;9.73;;
65315;SDS011;51920;53.952;10.292;2023-03-01T04:00:32;26.02;;;10.80;;
65315;SDS011;51920;53.952;10.292;2023-03-01T04:03:02;26.00;;;10.18;;
65315;SDS011;51920;53.952;10.292;2023-03-01T04:05:28;22.33;;;9.93;;
65315;SDS011;51920;53.952;10.292;2023-03-01T04:07:53;24.75;;;10.20;;
65315;SDS011;51920;53.952;10.292;2023-03-01T04:10:27;25.90;;;10.88;;
65315;SDS011;51920;53.952;10.292;2023-03-01T04:12:54;25.42;;;9.93;;
65315;SDS011;51920;53.952;10.292;2023-03-01T04:15:21;25.17;;;10.52;;
65315;SDS011;51920;53.952;10.292;2023-03-01T04:17:50;28.23;;;10.37;;
65315;SDS011;51920;53.952;10.292;2023-03-01T04:20:18;31.27;;;11.10;;
65315;SDS011;51920;53.952;10.292;2023-03-01T04:22:56;34.95;;;10.65;;
65315;SDS011;51920;53.952;10.292;2023-03-01T04:25:22;25.05;;;10.57;;
65315;SDS011;51920;53.952;10.292;2023-03-01T04:27:51;28.48;;;11.05;;
65315;SDS011;51920;53.952;10.292;2023-03-01T04:30:16;26.33;;;10.43;;
65315;SDS011;51920;53.952;10.292;2023-03-01T04:32:42;27.80;;;10.67;;
65315;SDS011;51920;53.952;10.292;2023-03-01T04:35:08;28.55;;;10.70;;
65315;SDS011;51920;53.952;10.292;2023-03-01T04:37:33;26.07;;;11.17;;
65315;SDS011;51920;53.952;10.292;2023-03-01T04:40:00;28.63;;;11.70;;
65315;SDS011;51920;53.952;10.292;2023-03-01T04:42:26;23.13;;;9.45;;
65315;SDS011;51920;53.952;10.292;2023-03-01T04:44:52;25.63;;;10.03;;
65315;SDS011;51920;53.952;10.292;2023-03-01T04:47:17;27.63;;;10.83;;
65315;SDS011;51920;53.952;10.292;2023-03-01T04:49:42;26.70;;;11.30;;
65315;SDS011;51920;53.952;10.292;2023-03-01T04:52:08;26.23;;;10.38;;
65315;SDS011;51920;53.952;10.292;2023-03-01T04:54:34;29.83;;;11.00;;
65315;SDS011;51920;53.952;10.292;2023-03-01T04:57:01;33.65;;;10.63;;
65315;SDS011;51920;53.952;10.292;2023-03-01T04:59:27;28.35;;;11.30;;
65315;SDS011;51920;53.952;10.292;2023-03-01T05:01:53;34.27;;;10.87;;
65315;SDS011;51920;53.952;10.292;2023-03-01T05:04:23;27.58;;;11.27;;
65315;SDS011;51920;53.952;10.292;2023-03-01T05:06:49;30.33;;;10.85;;
65315;SDS011;51920;53.952;10.292;2023-03-01T05:09:15;28.90;;;11.77;;
65315;SDS011;51920;53.952;10.292;2023-03-01T05:11:41;33.92;;;11.02;;
65315;SDS011;51920;53.952;10.292;2023-03-01T05:14:07;29.85;;;11.98;;
65315;SDS011;51920;53.952;10.292;2023-03-01T05:16:34;30.90;;;12.30;;
65315;SDS011;51920;53.952;10.292;2023-03-01T05:19:01;27.77;;;11.53;;
65315;SDS011;51920;53.952;10.292;2023-03-01T05:21:37;28.05;;;11.55;;
65315;SDS011;51920;53.952;10.292;2023-03-01T05:24:23;36.70;;;13.57;;
65315;SDS011;51920;53.952;10.292;2023-03-01T05:26:50;35.90;;;13.43;;
65315;SDS011;51920;53.952;10.292;2023-03-01T05:29:17;33.53;;;13.15;;
65315;SDS011;51920;53.952;10.292;2023-03-01T05:31:52;37.93;;;13.13;;
65315;SDS011;51920;53.952;10.292;2023-03-01T05:34:23;38.05;;;13.32;;
65315;SDS011;51920;53.952;10.292;2023-03-01T05:36:50;37.55;;;12.82;;
65315;SDS011;51920;53.952;10.292;2023-03-01T05:39:18;38.08;;;13.07;;
65315;SDS011;51920;53.952;10.292;2023-03-01T05:41:46;38.75;;;13.10;;
65315;SDS011;51920;53.952;10.292;2023-03-01T05:44:11;35.77;;;13.10;;
65315;SDS011;51920;53.952;10.292;2023-03-01T05:46:37;39.10;;;12.53;;
65315;SDS011;51920;53.952;10.292;2023-03-01T05:49:02;36.47;;;13.60;;
65315;SDS011;51920;53.952;10.292;2023-03-01T05:51:29;31.20;;;11.70;;
65315;SDS011;51920;53.952;10.292;2023-03-01T05:53:54;31.40;;;12.43;;
65315;SDS011;51920;53.952;10.292;2023-03-01T05:56:20;37.80;;;12.07;;
65315;SDS011;51920;53.952;10.292;2023-03-01T05:58:50;30.42;;;11.30;;
65315;SDS011;51920;53.952;10.292;2023-03-01T06:01:15;30.33;;;11.83;;
65315;SDS011;51920;53.952;10.292;2023-03-01T06:03:41;29.50;;;10.63;;
65315;SDS011;51920;53.952;10.292;2023-03-01T06:06:06;25.00;;;10.27;;
65315;SDS011;51920;53.952;10.292;2023-03-01T06:08:32;27.67;;;11.10;;
65315;SDS011;51920;53.952;10.292;2023-03-01T06:10:57;26.75;;;9.93;;
65315;SDS011;51920;53.952;10.292;2023-03-01T06:13:23;29.50;;;11.07;;
65315;SDS011;51920;53.952;10.292;2023-03-01T06:15:49;30.30;;;11.40;;
65315;SDS011;51920;53.952;10.292;2023-03-01T06:18:14;30.43;;;11.60;;
65315;SDS011;51920;53.952;10.292;2023-03-01T06:20:40;30.47;;;11.90;;
65315;SDS011;51920;53.952;10.292;2023-03-01T06:23:05;26.93;;;10.17;;
65315;SDS011;51920;53.952;10.292;2023-03-01T06:25:31;30.90;;;11.00;;
65315;SDS011;51920;53.952;10.292;2023-03-01T06:27:57;33.40;;;11.07;;
65315;SDS011;51920;53.952;10.292;2023-03-01T06:30:23;27.87;;;10.53;;
65315;SDS011;51920;53.952;10.292;2023-03-01T06:32:50;39.67;;;10.93;;
65315;SDS011;51920;53.952;10.292;2023-03-01T06:35:16;41.03;;;10.50;;
65315;SDS011;51920;53.952;10.292;2023-03-01T06:37:43;37.53;;;11.45;;
65315;SDS011;51920;53.952;10.292;2023-03-01T06:40:09;40.60;;;11.52;;
65315;SDS011;51920;53.952;10.292;2023-03-01T06:42:37;46.07;;;11.47;;
65315;SDS011;51920;53.952;10.292;2023-03-01T06:45:04;38.17;;;12.82;;
65315;SDS011;51920;53.952;10.292;2023-03-01T06:47:32;32.90;;;11.93;;
65315;SDS011;51920;53.952;10.292;2023-03-01T06:49:58;39.58;;;11.20;;
65315;SDS011;51920;53.952;10.292;2023-03-01T06:52:24;36.20;;;11.35;;
65315;SDS011;51920;53.952;10.292;2023-03-01T06:54:50;30.80;;;10.07;;
65315;SDS011;51920;53.952;10.292;2023-03-01T06:57:15;39.57;;;12.57;;
65315;SDS011;51920;53.952;10.292;2023-03-01T06:59:41;34.95;;;11.27;;
65315;SDS011;51920;53.952;10.292;2023-03-01T07:02:08;36.53;;;11.73;;
65315;SDS011;51920;53.952;10.292;2023-03-01T07:04:36;28.92;;;9.95;;
65315;SDS011;51920;53.952;10.292;2023-03-01T07:07:01;28.53;;;10.40;;
65315;SDS011;51920;53.952;10.292;2023-03-01T07:09:27;27.17;;;9.50;;
65315;SDS011;51920;53.952;10.292;2023-03-01T07:11:52;24.80;;;9.00;;
65315;SDS011;51920;53.952;10.292;2023-03-01T07:14:17;22.27;;;10.17;;
65315;SDS011;51920;53.952;10.292;2023-03-01T07:16:44;19.85;;;8.20;;
65315;SDS011;51920;53.952;10.292;2023-03-01T07:19:10;22.52;;;9.32;;
65315;SDS011;51920;53.952;10.292;2023-03-01T07:21:36;17.40;;;8.20;;
65315;SDS011;51920;53.952;10.292;2023-03-01T07:24:04;18.75;;;8.07;;
65315;SDS011;51920;53.952;10.292;2023-03-01T07:26:34;30.85;;;9.75;;
65315;SDS011;51920;53.952;10.292;2023-03-01T07:29:00;21.57;;;9.40;;
65315;SDS011;51920;53.952;10.292;2023-03-01T07:31:26;22.73;;;8.52;;
65315;SDS011;51920;53.952;10.292;2023-03-01T07:33:53;18.67;;;8.10;;
65315;SDS011;51920;53.952;10.292;2023-03-01T07:36:19;20.05;;;7.55;;
65315;SDS011;51920;53.952;10.292;2023-03-01T07:38:45;21.33;;;8.15;;
65315;SDS011;51920;53.952;10.292;2023-03-01T07:41:10;26.00;;;9.93;;
65315;SDS011;51920;53.952;10.292;2023-03-01T07:43:36;25.47;;;9.33;;
65315;SDS011;51920;53.952;10.292;2023-03-01T07:46:01;38.85;;;12.77;;
65315;SDS011;51920;53.952;10.292;2023-03-01T07:48:28;25.35;;;8.90;;
65315;SDS011;51920;53.952;10.292;2023-03-01T07:50:54;35.97;;;11.57;;
65315;SDS011;51920;53.952;10.292;2023-03-01T07:53:19;43.50;;;13.03;;
65315;SDS011;51920;53.952;10.292;2023-03-01T07:55:44;32.60;;;12.10;;
65315;SDS011;51920;53.952;10.292;2023-03-01T07:58:10;40.40;;;15.53;;
65315;SDS011;51920;53.952;10.292;2023-03-01T08:00:35;35.47;;;7.67;;
65315;SDS011;51920;53.952;10.292;2023-03-01T08:03:01;30.50;;;7.47;;
65315;SDS011;51920;53.952;10.292;2023-03-01T08:05:27;32.83;;;7.10;;
65315;SDS011;51920;53.952;10.292;2023-03-01T08:07:52;15.48;;;6.22;;
65315;SDS011;51920;53.952;10.292;2023-03-01T08:10:19;26.80;;;7.43;;
65315;SDS011;51920;53.952;10.292;2023-03-01T08:12:44;17.90;;;7.50;;
65315;SDS011;51920;53.952;10.292;2023-03-01T08:15:11;27.38;;;8.55;;
65315;SDS011;51920;53.952;10.292;2023-03-01T08:17:36;43.13;;;10.37;;
65315;SDS011;51920;53.952;10.292;2023-03-01T08:20:02;21.57;;;7.30;;
65315;SDS011;51920;53.952;10.292;2023-03-01T08:22:31;44.00;;;7.15;;
65315;SDS011;51920;53.952;10.292;2023-03-01T08:24:56;30.77;;;6.93;;
65315;SDS011;51920;53.952;10.292;2023-03-01T08:27:21;25.53;;;6.87;;
65315;SDS011;51920;53.952;10.292;2023-03-01T08:29:47;25.03;;;7.77;;
65315;SDS011;51920;53.952;10.292;2023-03-01T08:32:12;35.17;;;10.00;;
65315;SDS011;51920;53.952;10.292;2023-03-01T08:34:38;47.37;;;9.70;;
65315;SDS011;51920;53.952;10.292;2023-03-01T08:37:03;35.47;;;9.87;;
65315;SDS011;51920;53.952;10.292;2023-03-01T08:39:29;28.20;;;9.00;;
65315;SDS011;51920;53.952;10.292;2023-03-01T08:41:54;24.83;;;8.50;;
65315;SDS011;51920;53.952;10.292;2023-03-01T08:44:20;31.73;;;7.87;;
65315;SDS011;51920;53.952;10.292;2023-03-01T08:46:46;30.25;;;8.20;;
65315;SDS011;51920;53.952;10.292;2023-03-01T08:49:16;56.78;;;8.25;;
65315;SDS011;51920;53.952;10.292;2023-03-01T08:51:43;41.30;;;7.93;;
65315;SDS011;51920;53.952;10.292;2023-03-01T08:54:10;29.40;;;7.90;;
65315;SDS011;51920;53.952;10.292;2023-03-01T08:56:37;22.02;;;7.68;;
65315;SDS011;51920;53.952;10.292;2023-03-01T08:59:03;18.55;;;7.40;;
65315;SDS011;51920;53.952;10.292;2023-03-01T09:01:29;23.10;;;7.90;;
65315;SDS011;51920;53.952;10.292;2023-03-01T09:03:54;26.50;;;8.65;;
65315;SDS011;51920;53.952;10.292;2023-03-01T09:06:20;19.73;;;6.67;;
65315;SDS011;51920;53.952;10.292;2023-03-01T09:08:46;20.00;;;8.02;;
65315;SDS011;51920;53.952;10.292;2023-03-01T09:11:14;18.57;;;7.37;;
65315;SDS011;51920;53.952;10.292;2023-03-01T09:13:42;20.10;;;7.22;;
65315;SDS011;51920;53.952;10.292;2023-03-01T09:16:09;16.92;;;7.57;;
65315;SDS011;51920;53.952;10.292;2023-03-01T09:18:36;17.30;;;7.38;;
65315;SDS011;51920;53.952;10.292;2023-03-01T09:21:09;17.77;;;9.00;;
65315;SDS011;51920;53.952;10.292;2023-03-01T09:23:37;25.13;;;11.05;;
65315;SDS011;51920;53.952;10.292;2023-03-01T09:26:05;18.13;;;8.30;;
65315;SDS011;51920;53.952;10.292;2023-03-01T09:28:37;15.18;;;7.15;;
65315;SDS011;51920;53.952;10.292;2023-03-01T09:31:04;15.83;;;7.37;;
65315;SDS011;51920;53.952;10.292;2023-03-01T09:33:30;14.02;;;6.88;;
65315;SDS011;51920;53.952;10.292;2023-03-01T09:35:58;15.02;;;8.10;;
65315;SDS011;51920;53.952;10.292;2023-03-01T09:38:25;13.68;;;6.93;;
65315;SDS011;51920;53.952;10.292;2023-03-01T09:40:51;15.93;;;7.90;;
65315;SDS011;51920;53.952;10.292;2023-03-01T09:45:59;15.20;;;7.82;;
65315;SDS011;51920;53.952;10.292;2023-03-01T09:48:29;15.53;;;7.83;;
65315;SDS011;51920;53.952;10.292;2023-03-01T09:51:02;18.35;;;8.07;;
65315;SDS011;51920;53.952;10.292;2023-03-01T09:53:33;15.05;;;7.88;;
65315;SDS011;51920;53.952;10.292;2023-03-01T09:56:17;18.00;;;7.82;;
65315;SDS011;51920;53.952;10.292;2023-03-01T09:58:49;23.80;;;11.20;;
65315;SDS011;51920;53.952;10.292;2023-03-01T10:01:30;18.53;;;9.27;;
65315;SDS011;51920;53.952;10.292;2023-03-01T10:06:36;18.58;;;9.02;;
65315;SDS011;51920;53.952;10.292;2023-03-01T10:09:10;20.57;;;8.37;;
65315;SDS011;51920;53.952;10.292;2023-03-01T10:11:43;17.42;;;7.85;;
65315;SDS011;51920;53.952;10.292;2023-03-01T10:14:18;17.10;;;7.60;;
65315;SDS011;51920;53.952;10.292;2023-03-01T10:17:03;17.77;;;8.43;;
65315;SDS011;51920;53.952;10.292;2023-03-01T10:19:44;16.57;;;8.07;;
65315;SDS011;51920;53.952;10.292;2023-03-01T10:22:13;20.73;;;9.93;;
65315;SDS011;51920;53.952;10.292;2023-03-01T10:24:43;21.08;;;10.18;;
65315;SDS011;51920;53.952;10.292;2023-03-01T10:27:17;17.85;;;8.32;;
65315;SDS011;51920;53.952;10.292;2023-03-01T10:29:49;19.08;;;8.52;;
65315;SDS011;51920;53.952;10.292;2023-03-01T10:32:16;18.40;;;8.73;;
65315;SDS011;51920;53.952;10.292;2023-03-01T10:34:43;17.25;;;7.88;;
65315;SDS011;51920;53.952;10.292;2023-03-01T10:37:13;18.57;;;8.67;;
65315;SDS011;51920;53.952;10.292;2023-03-01T10:42:31;18.00;;;8.10;;
65315;SDS011;51920;53.952;10.292;2023-03-01T10:44:58;16.85;;;8.38;;
65315;SDS011;51920;53.952;10.292;2023-03-01T10:47:41;18.10;;;8.55;;
65315;SDS011;51920;53.952;10.292;2023-03-01T10:50:17;18.57;;;9.13;;
65315;SDS011;51920;53.952;10.292;2023-03-01T10:52:58;18.52;;;9.15;;
65315;SDS011;51920;53.952;10.292;2023-03-01T10:55:38;20.27;;;8.98;;
65315;SDS011;51920;53.952;10.292;2023-03-01T11:01:25;17.20;;;8.45;;
65315;SDS011;51920;53.952;10.292;2023-03-01T11:03:40;20.33;;;9.23;;
65315;SDS011;51920;53.952;10.292;2023-03-01T11:06:19;18.33;;;8.50;;
65315;SDS011;51920;53.952;10.292;2023-03-01T11:08:47;15.98;;;8.23;;
65315;SDS011;51920;53.952;10.292;2023-03-01T11:13:50;19.50;;;8.25;;
65315;SDS011;51920;53.952;10.292;2023-03-01T11:21:34;17.08;;;8.15;;
65315;SDS011;51920;53.952;10.292;2023-03-01T11:24:04;18.27;;;8.60;;
65315;SDS011;51920;53.952;10.292;2023-03-01T11:26:34;15.25;;;7.68;;
65315;SDS011;51920;53.952;10.292;2023-03-01T11:29:03;16.25;;;8.02;;
65315;SDS011;51920;53.952;10.292;2023-03-01T11:31:32;15.83;;;7.37;;
65315;SDS011;51920;53.952;10.292;2023-03-01T11:42:14;13.55;;;7.07;;
65315;SDS011;51920;53.952;10.292;2023-03-01T11:44:44;14.23;;;7.00;;
65315;SDS011;51920;53.952;10.292;2023-03-01T11:47:15;15.50;;;7.07;;
65315;SDS011;51920;53.952;10.292;2023-03-01T11:53:07;13.80;;;7.07;;
65315;SDS011;51920;53.952;10.292;2023-03-01T12:18:03;10.75;;;6.20;;
65315;SDS011;51920;53.952;10.292;2023-03-01T12:26:47;11.53;;;6.17;;
65315;SDS011;51920;53.952;10.292;2023-03-01T12:32:25;12.32;;;6.97;;
65315;SDS011;51920;53.952;10.292;2023-03-01T12:35:03;11.88;;;6.28;;
65315;SDS011;51920;53.952;10.292;2023-03-01T12:51:35;12.05;;;6.80;;
65315;SDS011;51920;53.952;10.292;2023-03-01T12:54:48;12.03;;;6.70;;
65315;SDS011;51920;53.952;10.292;2023-03-01T12:56:54;10.90;;;6.28;;
65315;SDS011;51920;53.952;10.292;2023-03-01T13:02:20;13.77;;;7.47;;
65315;SDS011;51920;53.952;10.292;2023-03-01T13:08:09;14.10;;;7.40;;
65315;SDS011;51920;53.952;10.292;2023-03-01T13:10:48;16.05;;;7.93;;
65315;SDS011;51920;53.952;10.292;2023-03-01T13:15:48;15.23;;;7.93;;
65315;SDS011;51920;53.952;10.292;2023-03-01T13:23:09;15.53;;;8.13;;
65315;SDS011;51920;53.952;10.292;2023-03-01T13:36:09;13.80;;;7.38;;
65315;SDS011;51920;53.952;10.292;2023-03-01T13:41:12;11.95;;;7.13;;
65315;SDS011;51920;53.952;10.292;2023-03-01T13:43:43;14.37;;;7.23;;
65315;SDS011;51920;53.952;10.292;2023-03-01T13:46:15;12.00;;;6.72;;
65315;SDS011;51920;53.952;10.292;2023-03-01T13:48:53;13.02;;;7.57;;
65315;SDS011;51920;53.952;10.292;2023-03-01T13:51:23;13.23;;;7.18;;
65315;SDS011;51920;53.952;10.292;2023-03-01T13:53:53;11.25;;;6.70;;
65315;SDS011;51920;53.952;10.292;2023-03-01T13:56:24;12.00;;;6.93;;
65315;SDS011;51920;53.952;10.292;2023-03-01T13:58:53;12.10;;;6.55;;
65315;SDS011;51920;53.952;10.292;2023-03-01T14:03:49;12.50;;;6.30;;
65315;SDS011;51920;53.952;10.292;2023-03-01T14:06:15;12.63;;;6.40;;
65315;SDS011;51920;53.952;10.292;2023-03-01T14:08:46;10.18;;;6.30;;
65315;SDS011;51920;53.952;10.292;2023-03-01T14:21:34;9.17;;;5.40;;
65315;SDS011;51920;53.952;10.292;2023-03-01T14:24:01;9.60;;;5.35;;
65315;SDS011;51920;53.952;10.292;2023-03-01T14:26:27;9.75;;;5.65;;
65315;SDS011;51920;53.952;10.292;2023-03-01T14:28:52;9.27;;;5.97;;
65315;SDS011;51920;53.952;10.292;2023-03-01T14:31:39;9.20;;;5.47;;
65315;SDS011;51920;53.952;10.292;2023-03-01T14:34:16;8.13;;;5.37;;
65315;SDS011;51920;53.952;10.292;2023-03-01T14:36:44;8.57;;;5.35;;
65315;SDS011;51920;53.952;10.292;2023-03-01T14:39:17;10.20;;;5.50;;
65315;SDS011;51920;53.952;10.292;2023-03-01T14:41:44;8.13;;;4.90;;
65315;SDS011;51920;53.952;10.292;2023-03-01T14:44:15;10.00;;;5.07;;
65315;SDS011;51920;53.952;10.292;2023-03-01T14:46:44;8.15;;;5.10;;
65315;SDS011;51920;53.952;10.292;2023-03-01T14:49:12;9.23;;;5.60;;
65315;SDS011;51920;53.952;10.292;2023-03-01T14:51:41;11.90;;;5.97;;
65315;SDS011;51920;53.952;10.292;2023-03-01T14:54:20;13.20;;;6.72;;
65315;SDS011;51920;53.952;10.292;2023-03-01T14:57:17;13.73;;;7.05;;
65315;SDS011;51920;53.952;10.292;2023-03-01T14:59:46;11.25;;;6.43;;
65315;SDS011;51920;53.952;10.292;2023-03-01T15:02:15;11.13;;;6.75;;
65315;SDS011;51920;53.952;10.292;2023-03-01T15:05:03;13.73;;;7.17;;
65315;SDS011;51920;53.952;10.292;2023-03-01T15:07:30;14.27;;;7.38;;
65315;SDS011;51920;53.952;10.292;2023-03-01T15:09:58;13.63;;;7.55;;
65315;SDS011;51920;53.952;10.292;2023-03-01T15:14:54;17.52;;;8.60;;
65315;SDS011;51920;53.952;10.292;2023-03-01T15:17:33;16.27;;;8.13;;
65315;SDS011;51920;53.952;10.292;2023-03-01T15:20:02;17.83;;;9.10;;
65315;SDS011;51920;53.952;10.292;2023-03-01T15:22:30;20.98;;;9.57;;
65315;SDS011;51920;53.952;10.292;2023-03-01T15:24:55;22.40;;;10.87;;
65315;SDS011;51920;53.952;10.292;2023-03-01T15:27:23;23.17;;;9.93;;
65315;SDS011;51920;53.952;10.292;2023-03-01T15:29:57;19.95;;;9.75;;
65315;SDS011;51920;53.952;10.292;2023-03-01T15:32:31;20.70;;;9.53;;
65315;SDS011;51920;53.952;10.292;2023-03-01T15:38:52;19.60;;;9.48;;
65315;SDS011;51920;53.952;10.292;2023-03-01T15:40:55;19.05;;;8.50;;
65315;SDS011;51920;53.952;10.292;2023-03-01T15:43:55;18.27;;;8.63;;
65315;SDS011;51920;53.952;10.292;2023-03-01T15:46:20;16.07;;;7.40;;
65315;SDS011;51920;53.952;10.292;2023-03-01T15:48:58;15.48;;;7.60;;
65315;SDS011;51920;53.952;10.292;2023-03-01T15:51:28;15.88;;;8.48;;
65315;SDS011;51920;53.952;10.292;2023-03-01T15:54:00;15.75;;;7.43;;
65315;SDS011;51920;53.952;10.292;2023-03-01T15:56:28;17.40;;;8.00;;
65315;SDS011;51920;53.952;10.292;2023-03-01T15:58:57;16.53;;;8.00;;
65315;SDS011;51920;53.952;10.292;2023-03-01T16:01:23;16.73;;;8.20;;
65315;SDS011;51920;53.952;10.292;2023-03-01T16:03:48;19.57;;;8.57;;
65315;SDS011;51920;53.952;10.292;2023-03-01T16:06:14;18.57;;;8.63;;
65315;SDS011;51920;53.952;10.292;2023-03-01T16:08:39;17.85;;;8.80;;
65315;SDS011;51920;53.952;10.292;2023-03-01T16:11:09;19.20;;;8.63;;
65315;SDS011;51920;53.952;10.292;2023-03-01T16:13:43;18.45;;;9.00;;
65315;SDS011;51920;53.952;10.292;2023-03-01T16:16:10;17.83;;;7.93;;
65315;SDS011;51920;53.952;10.292;2023-03-01T16:18:47;18.95;;;9.13;;
65315;SDS011;51920;53.952;10.292;2023-03-01T16:21:20;17.60;;;9.03;;
65315;SDS011;51920;53.952;10.292;2023-03-01T16:23:47;19.00;;;8.85;;
65315;SDS011;51920;53.952;10.292;2023-03-01T16:26:13;17.38;;;8.85;;
65315;SDS011;51920;53.952;10.292;2023-03-01T16:28:39;19.77;;;8.83;;
65315;SDS011;51920;53.952;10.292;2023-03-01T16:31:06;19.30;;;9.52;;
65315;SDS011;51920;53.952;10.292;2023-03-01T16:33:31;19.70;;;9.67;;
65315;SDS011;51920;53.952;10.292;2023-03-01T16:35:59;19.85;;;9.60;;
65315;SDS011;51920;53.952;10.292;2023-03-01T16:38:28;17.17;;;8.55;;
65315;SDS011;51920;53.952;10.292;2023-03-01T16:40:53;16.55;;;7.93;;
65315;SDS011;51920;53.952;10.292;2023-03-01T16:43:19;19.03;;;8.67;;
65315;SDS011;51920;53.952;10.292;2023-03-01T16:45:45;16.02;;;8.02;;